Terminal Aerodrome Forecast
Issued by NWS

Home | Current Version | Previous Version | Text Only | Print | Product List | Glossary On
Versions: 1 2 3 4 5 6 7 8 9 10 11 12 13 14 15 16
000
FTUS45 KRIW 191500 AAC
TAFJAC
TAF AMD
KJAC 191535Z 1916/2012 VRB03KT 6SM BR SCT004 BKN020
      TEMPO 1916/1918 OVC004
     FM191800 VRB05KT P6SM FEW025
     FM191900 21010G16KT P6SM FEW090
     FM200100 20006KT P6SM SKC
     FM200500 36006KT P6SM SKC
      AMD LTD TO CLD VIS AND WIND=

USA.gov is the U.S. government's official web portal to all federal, state and local government web resources and services.